KCAO

Clayton Municipal Arpk Airport

Clayton, New Mexico, USA
METAR KCAO 231355Z AUTO 06003KT 10SM CLR M07/M12 A3005 RMK AO2 SLP198 T10721117
Observed Flight Rules
Feb-23 @ 13:55 UTC (34 minutes ago) Visual Flight Rules
Wind Visibility Clouds
60° at 3 knots 10 miles
  • Clear skies
Temperatures Readings
Current -7°C / 19°F
Dewpoint -12°C / 10°F
Humidity 68%
Altimeter 30.05" Hg
Pressure 1019.8 hPa
Elevation 1514
METAR KCAO 231355Z AUTO 06003KT 10SM CLR M07/M12 A3005 RMK AO2 SLP198 T10721117
Observed Flight Rules
Feb-23 @ 13:55 UTC
(34 minutes ago)
VFR
Wind Visibility
60° at 3 knots 10 miles
Clouds
  • Clear skies
Temperature Dewpoint
-7°C / 19°F -12°C / 10°F
Humidity Altimeter Pressure
68% 30.05" Hg 1019.8 hPa